Time;durP1;ratioP1;P1;durP2;ratioP2;P2;SDS_P1;SDS_P2;PMS_P1;PMS_P2;Temp;Humidity;BMP_temperature;BMP_pressure;BME280_temperature;BME280_humidity;BME280_pressure;Samples;Min_cycle;Max_cycle;Signal;HPM_P1;HPM_P2
2022/08/06 00:04:25;;;;;;;7.95;0.88;;;18.90;94.70;;;;;;21010127;28;20090;-70
2022/08/06 00:14:29;;;;;;;0.80;0.77;;;18.80;94.60;;;;;;21034630;28;20077;-63
2022/08/06 00:24:32;;;;;;;1.25;0.60;;;18.70;94.40;;;;;;21060640;28;20447;-62
2022/08/06 00:34:34;;;;;;;0.98;0.88;;;18.70;94.30;;;;;;21059709;28;20044;-62
2022/08/06 00:44:37;;;;;;;2.05;0.90;;;18.70;94.30;;;;;;21059368;28;20082;-61
2022/08/06 00:54:39;;;;;;;0.80;0.80;;;18.70;94.00;;;;;;21058532;28;20066;-60
2022/08/06 01:04:41;;;;;;;0.70;0.70;;;18.60;94.20;;;;;;21049285;28;20040;-58
2022/08/06 01:14:44;;;;;;;1.08;0.98;;;18.70;94.00;;;;;;21055632;28;20044;-59
2022/08/06 01:24:58;;;;;;;0.80;0.80;;;18.80;93.80;;;;;;21055643;28;20085;-62
2022/08/06 01:35:16;;;;;;;0.60;0.60;;;18.80;93.70;;;;;;20998005;28;20037;-61
2022/08/06 01:45:21;;;;;;;1.55;0.98;;;18.70;94.30;;;;;;21041972;28;20109;-61
2022/08/06 01:55:35;;;;;;;1.35;1.20;;;18.30;95.70;;;;;;21054413;28;20044;-60
2022/08/06 02:05:40;;;;;;;1.90;1.10;;;18.10;96.60;;;;;;21011875;28;20040;-60
2022/08/06 02:15:44;;;;;;;1.55;1.10;;;18.10;97.00;;;;;;21112170;28;20036;-58
2022/08/06 02:25:48;;;;;;;1.30;1.20;;;18.00;97.20;;;;;;21062107;28;20419;-58
2022/08/06 02:36:04;;;;;;;1.27;1.10;;;18.10;96.70;;;;;;21050197;28;20036;-60
2022/08/06 02:46:24;;;;;;;2.78;0.93;;;18.10;96.60;;;;;;21048942;28;20082;-64
2022/08/06 02:56:28;;;;;;;1.50;1.00;;;18.10;96.60;;;;;;21114291;28;20058;-65
2022/08/06 03:06:33;;;;;;;1.08;0.98;;;18.10;96.40;;;;;;21048949;28;20085;-64
2022/08/06 03:16:38;;;;;;;1.30;0.98;;;18.10;96.50;;;;;;21048716;28;20039;-61
2022/08/06 03:26:42;;;;;;;1.02;0.90;;;18.00;96.30;;;;;;21048211;28;20040;-58
2022/08/06 03:36:45;;;;;;;1.15;1.00;;;18.40;95.40;;;;;;20983632;28;20190;-60
2022/08/06 03:47:12;;;;;;;1.10;0.98;;;18.30;95.40;;;;;;21124055;28;20384;-67
2022/08/06 03:57:19;;;;;;;3.60;1.13;;;18.40;95.10;;;;;;21071259;28;20036;-64
2022/08/06 04:07:22;;;;;;;1.05;0.95;;;18.40;95.20;;;;;;21039473;28;20031;-54
2022/08/06 04:17:26;;;;;;;3.92;0.88;;;18.50;95.10;;;;;;21017716;28;20075;-60
2022/08/06 04:27:30;;;;;;;2.65;1.13;;;18.60;94.60;;;;;;21051889;28;20035;-54
2022/08/06 04:37:33;;;;;;;1.20;0.88;;;18.60;94.80;;;;;;21059783;28;20044;-60
2022/08/06 04:47:38;;;;;;;1.20;0.98;;;18.50;94.60;;;;;;21058141;28;20066;-54
2022/08/06 04:57:40;;;;;;;0.80;0.77;;;18.60;94.00;;;;;;21038653;28;20067;-55
2022/08/06 05:07:45;;;;;;;1.35;0.80;;;18.80;93.70;;;;;;21045935;28;20035;-52
2022/08/06 05:18:24;;;;;;;1.17;0.82;;;18.80;94.00;;;;;;21056743;28;20032;-61
2022/08/06 05:28:26;;;;;;;2.33;0.93;;;19.00;93.50;;;;;;21053724;28;20036;-54
2022/08/06 05:38:30;;;;;;;1.33;0.70;;;19.10;92.90;;;;;;21121765;28;20044;-56
2022/08/06 05:48:46;;;;;;;0.80;0.80;;;19.30;92.20;;;;;;21137205;28;20095;-56
2022/08/06 05:58:54;;;;;;;0.80;0.80;;;19.40;92.00;;;;;;21136692;28;20100;-55
2022/08/06 06:08:57;;;;;;;1.77;0.80;;;19.50;92.40;;;;;;21066646;28;20065;-56
2022/08/06 06:19:43;;;;;;;1.10;0.90;;;19.50;92.20;;;;;;21127484;28;20040;-60
2022/08/06 06:29:56;;;;;;;0.70;0.70;;;19.80;91.90;;;;;;21133491;28;20380;-55
2022/08/06 06:40:04;;;;;;;0.80;0.80;;;20.70;90.60;;;;;;21133119;28;20496;-59
2022/08/06 06:50:26;;;;;;;;;;;23.40;84.30;;;;;;21133268;28;20039;-58
2022/08/06 07:00:30;;;;;;;1.83;1.05;;;25.10;81.10;;;;;;21007625;28;20254;-58
2022/08/06 07:10:34;;;;;;;0.95;0.82;;;26.00;78.80;;;;;;21068184;28;20795;-57
2022/08/06 07:20:37;;;;;;;1.10;0.90;;;27.00;76.90;;;;;;21063541;28;20040;-62
2022/08/06 07:30:41;;;;;;;0.85;0.80;;;25.50;75.80;;;;;;21063357;28;20089;-57
2022/08/06 07:40:48;;;;;;;0.85;0.80;;;24.00;78.60;;;;;;21062586;28;20048;-57
2022/08/06 07:50:53;;;;;;;0.82;0.80;;;23.10;82.00;;;;;;21063252;28;20085;-57
2022/08/06 08:00:56;;;;;;;0.73;0.73;;;23.10;81.70;;;;;;21060847;28;20081;-57
2022/08/06 08:10:58;;;;;;;1.40;1.10;;;23.50;80.90;;;;;;21052131;28;20032;-58
2022/08/06 08:21:02;;;;;;;2.92;0.95;;;24.30;79.10;;;;;;21049051;28;20036;-58
2022/08/06 08:31:06;;;;;;;0.90;0.90;;;24.30;78.50;;;;;;21038823;28;20093;-57
2022/08/06 08:41:22;;;;;;;1.00;0.90;;;24.50;77.90;;;;;;21041845;28;20032;-57
2022/08/06 08:51:25;;;;;;;1.88;0.98;;;24.60;78.50;;;;;;21034300;28;20448;-58
2022/08/06 09:01:27;;;;;;;0.80;0.80;;;25.40;77.90;;;;;;21051369;28;20040;-57
2022/08/06 09:11:34;;;;;;;1.33;0.90;;;25.60;75.90;;;;;;21061576;28;20035;-56
2022/08/06 09:21:36;;;;;;;1.20;0.90;;;25.80;76.30;;;;;;21041044;28;20032;-58
2022/08/06 09:31:39;;;;;;;1.58;0.90;;;26.20;73.50;;;;;;21060657;28;20052;-58
2022/08/06 09:41:51;;;;;;;1.38;1.13;;;26.90;72.40;;;;;;21039768;28;20066;-58
2022/08/06 09:52:14;;;;;;;0.90;0.90;;;26.90;72.30;;;;;;21052204;28;20040;-58
2022/08/06 10:02:20;;;;;;;2.03;1.23;;;27.10;71.30;;;;;;21048818;28;20113;-58
2022/08/06 10:12:24;;;;;;;1.40;1.30;;;27.80;71.70;;;;;;21044269;28;20070;-57
2022/08/06 10:22:27;;;;;;;1.42;1.33;;;27.20;71.90;;;;;;21051350;28;20472;-58
2022/08/06 10:32:45;;;;;;;2.55;1.60;;;27.30;72.20;;;;;;21049181;28;20451;-59
2022/08/06 10:42:52;;;;;;;2.47;1.90;;;28.90;78.20;;;;;;21047237;28;20070;-56
2022/08/06 10:52:55;;;;;;;3.05;2.10;;;30.30;73.00;;;;;;21031669;28;20396;-56
2022/08/06 11:03:24;;;;;;;2.97;1.90;;;30.70;74.00;;;;;;21043719;28;20040;-56
2022/08/06 11:13:32;;;;;;;2.50;2.30;;;31.60;74.00;;;;;;21032483;28;20040;-56
2022/08/06 11:23:44;;;;;;;2.70;2.03;;;31.70;68.20;;;;;;21046165;28;20040;-56
2022/08/06 11:33:48;;;;;;;1.73;1.63;;;30.40;68.50;;;;;;21056268;28;20052;-56
2022/08/06 11:43:51;;;;;;;3.95;2.70;;;28.90;75.50;;;;;;21044874;28;20028;-55
2022/08/06 11:54:27;;;;;;;2.53;2.33;;;28.50;75.20;;;;;;21040316;28;20550;-54
2022/08/06 12:04:40;;;;;;;3.40;3.10;;;27.80;77.90;;;;;;20784871;28;20049;-56
2022/08/06 12:14:49;;;;;;;3.83;3.10;;;27.40;74.00;;;;;;20797891;28;20184;-54
2022/08/06 12:24:58;;;;;;;3.22;2.92;;;27.00;74.60;;;;;;20800205;28;20142;-57
2022/08/06 12:35:12;;;;;;;4.88;3.10;;;26.70;76.90;;;;;;20877298;28;20072;-52
2022/08/06 12:45:29;;;;;;;15.60;4.78;;;26.30;80.10;;;;;;21046213;28;20401;-60
2022/08/06 12:55:56;;;;;;;12.50;10.20;;;24.50;94.30;;;;;;21056569;28;20097;-59
2022/08/06 13:06:06;;;;;;;11.48;9.88;;;20.50;99.90;;;;;;21055374;28;20036;-56
2022/08/06 13:16:14;;;;;;;14.52;8.15;;;19.40;99.90;;;;;;21064365;28;20057;-59
2022/08/06 13:26:19;;;;;;;10.35;7.20;;;18.90;99.90;;;;;;21055297;28;20058;-59
2022/08/06 13:36:27;;;;;;;8.40;5.95;;;18.40;99.90;;;;;;21054022;28;20040;-60
2022/08/06 13:46:30;;;;;;;5.18;4.43;;;18.20;99.90;;;;;;21062128;28;20051;-60
2022/08/06 13:56:33;;;;;;;6.80;4.10;;;18.10;99.90;;;;;;21052696;28;20040;-59
2022/08/06 14:06:35;;;;;;;4.97;4.00;;;17.90;99.90;;;;;;21051954;28;20103;-60
2022/08/06 14:16:39;;;;;;;6.65;5.07;;;17.90;99.90;;;;;;21059348;28;20035;-59
2022/08/06 14:26:43;;;;;;;6.93;6.25;;;18.20;99.90;;;;;;21042224;28;20447;-60
2022/08/06 14:36:45;;;;;;;6.28;5.10;;;18.30;99.90;;;;;;21049899;28;20044;-59
2022/08/06 14:46:49;;;;;;;3.40;3.10;;;19.20;99.90;;;;;;21024256;28;20032;-58
2022/08/06 14:56:51;;;;;;;3.00;2.75;;;20.30;99.90;;;;;;21048254;28;20028;-58
2022/08/06 15:06:55;;;;;;;3.40;3.10;;;20.60;99.90;;;;;;21048321;28;20036;-56
2022/08/06 15:16:57;;;;;;;3.72;2.95;;;20.40;99.90;;;;;;21048748;28;20032;-58
2022/08/06 15:27:04;;;;;;;1.98;1.77;;;20.10;99.90;;;;;;21043873;28;20032;-58
2022/08/06 15:37:07;;;;;;;2.15;1.95;;;20.10;99.90;;;;;;21045392;28;20077;-58
2022/08/06 15:47:10;;;;;;;2.47;2.08;;;21.70;99.90;;;;;;21063658;28;20028;-58
2022/08/06 15:57:15;;;;;;;3.42;3.13;;;23.60;99.60;;;;;;21063190;28;20086;-62
2022/08/06 16:07:17;;;;;;;4.20;3.80;;;22.90;99.90;;;;;;21061862;28;20043;-55
2022/08/06 16:17:20;;;;;;;4.00;3.70;;;20.80;99.90;;;;;;21048351;28;20660;-57
2022/08/06 16:27:23;;;;;;;5.72;4.57;;;19.50;99.90;;;;;;21056145;28;20060;-57
2022/08/06 16:37:29;;;;;;;3.30;3.00;;;18.80;99.90;;;;;;21059265;28;20044;-55
2022/08/06 16:47:32;;;;;;;3.53;1.10;;;18.90;99.90;;;;;;21053718;28;20043;-56
2022/08/06 16:57:37;;;;;;;9.00;2.33;;;19.00;99.90;;;;;;21054369;28;20484;-57
2022/08/06 17:07:41;;;;;;;9.50;2.78;;;15.80;99.90;;;;;;21057448;28;20101;-57
2022/08/06 17:17:48;;;;;;;4.60;1.70;;;15.20;99.90;;;;;;21052699;28;20557;-57
2022/08/06 17:28:06;;;;;;;3.63;1.77;;;14.90;99.90;;;;;;21046794;28;20401;-60
2022/08/06 17:38:19;;;;;;;4.35;2.67;;;14.60;99.90;;;;;;21042005;28;20096;-59
2022/08/06 17:48:36;;;;;;;3.10;2.80;;;14.70;99.90;;;;;;21071489;28;20071;-60
2022/08/06 17:58:39;;;;;;;2.50;2.30;;;15.00;99.90;;;;;;21052659;28;20127;-61
2022/08/06 18:08:42;;;;;;;2.35;1.40;;;15.00;99.90;;;;;;21048208;28;20090;-60
2022/08/06 18:18:47;;;;;;;1.10;1.00;;;14.80;99.90;;;;;;21051071;28;20035;-60
2022/08/06 18:28:49;;;;;;;1.15;1.00;;;14.60;99.90;;;;;;21050437;28;20101;-62
2022/08/06 18:38:51;;;;;;;1.20;1.08;;;14.50;99.90;;;;;;20980594;28;20114;-59
2022/08/06 18:48:55;;;;;;;1.23;1.08;;;14.30;99.90;;;;;;20946416;28;20448;-61
2022/08/06 18:58:58;;;;;;;0.80;0.80;;;14.30;99.90;;;;;;20962550;28;20082;-61
2022/08/06 19:09:01;;;;;;;0.60;0.50;;;14.20;99.90;;;;;;20946556;28;20089;-59
2022/08/06 19:19:05;;;;;;;1.10;0.60;;;14.30;99.90;;;;;;20964648;28;20040;-61
2022/08/06 19:29:08;;;;;;;0.70;0.60;;;14.40;99.90;;;;;;20946811;28;20045;-61
2022/08/06 19:39:12;;;;;;;0.88;0.60;;;14.50;99.90;;;;;;20937711;28;20102;-59
2022/08/06 19:49:16;;;;;;;1.27;0.60;;;14.70;99.90;;;;;;20937585;28;20040;-59
2022/08/06 19:59:19;;;;;;;2.88;0.70;;;15.10;99.90;;;;;;20947882;28;20040;-60
2022/08/06 20:09:27;;;;;;;5.43;1.33;;;15.20;99.90;;;;;;20951272;28;20106;-55
2022/08/06 20:19:30;;;;;;;1.55;0.60;;;14.80;99.90;;;;;;20969741;28;20086;-60
2022/08/06 20:29:33;;;;;;;0.80;0.70;;;14.30;99.90;;;;;;20975783;28;20055;-60
2022/08/06 20:39:36;;;;;;;1.08;0.98;;;14.30;99.90;;;;;;20975511;28;20086;-62
2022/08/06 20:49:39;;;;;;;3.20;1.00;;;14.30;99.90;;;;;;20973808;28;20037;-62
2022/08/06 20:59:42;;;;;;;4.47;1.85;;;14.50;99.90;;;;;;20945843;28;20070;-56
2022/08/06 21:09:46;;;;;;;3.30;2.47;;;14.40;99.90;;;;;;20905949;28;20114;-57
2022/08/06 21:19:52;;;;;;;4.03;2.30;;;14.50;99.90;;;;;;20890754;28;20033;-59
2022/08/06 21:29:55;;;;;;;2.13;1.70;;;14.50;99.90;;;;;;20903010;28;20028;-55
2022/08/06 21:39:58;;;;;;;2.63;2.00;;;14.50;99.90;;;;;;20893852;28;20048;-60
2022/08/06 21:50:02;;;;;;;2.78;2.00;;;14.30;99.90;;;;;;20888702;28;20045;-60
2022/08/06 22:00:14;;;;;;;2.92;1.88;;;14.40;99.90;;;;;;20888064;28;20040;-60
2022/08/06 22:10:19;;;;;;;2.00;1.80;;;14.50;99.90;;;;;;20889106;28;20069;-60
2022/08/06 22:20:22;;;;;;;2.90;2.20;;;14.80;99.90;;;;;;20886392;28;20180;-60
2022/08/06 22:30:31;;;;;;;3.95;2.55;;;14.80;99.90;;;;;;20887044;28;20099;-59
2022/08/06 22:40:37;;;;;;;3.40;3.10;;;14.80;99.90;;;;;;20884254;28;20045;-55
2022/08/06 22:50:41;;;;;;;4.72;3.53;;;14.70;99.90;;;;;;20884441;28;20091;-54
2022/08/06 23:00:44;;;;;;;6.65;4.50;;;14.60;99.90;;;;;;20892646;28;20040;-51
2022/08/06 23:10:48;;;;;;;6.35;5.25;;;14.50;99.90;;;;;;20851404;28;20037;-49
2022/08/06 23:20:51;;;;;;;6.97;5.85;;;14.50;99.90;;;;;;20883368;28;20029;-52
2022/08/06 23:30:53;;;;;;;5.28;4.78;;;14.40;99.90;;;;;;20906218;28;20120;-50
2022/08/06 23:40:57;;;;;;;4.55;4.00;;;14.40;99.90;;;;;;21048906;28;20374;-58
2022/08/06 23:51:00;;;;;;;6.60;3.90;;;14.50;99.90;;;;;;21051221;28;20044;-53
